createdAt,value
2022-12-15T00:00:18.768Z,6.73
2022-12-15T00:03:05.885Z,5.83
2022-12-15T00:05:51.737Z,6.27
2022-12-15T00:08:37.127Z,6.00
2022-12-15T00:11:22.639Z,5.90
2022-12-15T00:14:08.135Z,6.40
2022-12-15T00:16:53.774Z,6.70
2022-12-15T00:19:40.596Z,6.40
2022-12-15T00:22:26.120Z,6.27
2022-12-15T00:25:11.722Z,5.47
2022-12-15T00:27:57.399Z,6.27
2022-12-15T00:30:42.671Z,6.13
2022-12-15T00:33:30.293Z,6.67
2022-12-15T00:36:18.379Z,6.50
2022-12-15T00:38:47.497Z,6.10
2022-12-15T00:41:18.430Z,6.00
2022-12-15T00:43:46.812Z,6.10
2022-12-15T00:46:32.798Z,6.57
2022-12-15T00:49:01.492Z,5.37
2022-12-15T00:51:48.315Z,5.90
2022-12-15T00:54:33.764Z,6.07
2022-12-15T00:57:19.053Z,6.63
2022-12-15T01:00:04.771Z,6.03
2022-12-15T01:02:50.678Z,6.70
2022-12-15T01:05:36.127Z,5.37
2022-12-15T01:08:22.909Z,5.63
2022-12-15T01:11:08.380Z,6.47
2022-12-15T01:13:53.920Z,6.00
2022-12-15T01:16:39.369Z,6.27
2022-12-15T01:19:27.030Z,5.50
2022-12-15T01:21:55.019Z,6.60
2022-12-15T01:24:24.432Z,5.90
2022-12-15T01:26:52.507Z,6.27
2022-12-15T01:29:20.478Z,5.67
2022-12-15T01:31:49.913Z,6.87
2022-12-15T01:34:20.119Z,5.93
2022-12-15T01:36:48.226Z,5.70
2022-12-15T01:39:16.523Z,6.80
2022-12-15T01:41:44.861Z,6.07
2022-12-15T01:44:18.507Z,6.20
2022-12-15T01:46:48.022Z,5.87
2022-12-15T01:49:18.942Z,5.87
2022-12-15T01:51:52.396Z,6.33
2022-12-15T01:54:23.756Z,6.00
2022-12-15T01:56:57.922Z,6.07
2022-12-15T01:59:31.564Z,6.33
2022-12-15T02:02:00.004Z,5.80
2022-12-15T02:04:34.738Z,5.27
2022-12-15T02:07:02.677Z,6.77
2022-12-15T02:09:31.396Z,6.20
2022-12-15T02:12:06.809Z,6.47
2022-12-15T02:14:48.478Z,5.93
2022-12-15T02:17:29.622Z,5.47
2022-12-15T02:20:27.016Z,6.80
2022-12-15T02:23:35.497Z,6.67
2022-12-15T02:26:43.984Z,5.90
2022-12-15T02:29:37.009Z,5.23
2022-12-15T02:32:11.006Z,5.67
2022-12-15T02:34:43.811Z,6.87
2022-12-15T02:37:16.774Z,5.90
2022-12-15T02:39:44.768Z,6.13
2022-12-15T02:42:12.943Z,6.10
2022-12-15T02:44:45.523Z,6.60
2022-12-15T02:47:21.897Z,6.23
2022-12-15T02:50:06.443Z,6.20
2022-12-15T02:52:47.724Z,5.97
2022-12-15T02:55:21.792Z,5.70
2022-12-15T02:57:55.988Z,5.90
2022-12-15T03:00:24.209Z,4.87
2022-12-15T03:02:56.245Z,5.87
2022-12-15T03:05:26.220Z,5.80
2022-12-15T03:07:55.470Z,5.50
2022-12-15T03:10:26.594Z,6.07
2022-12-15T03:12:55.484Z,6.10
2022-12-15T03:15:23.503Z,6.43
2022-12-15T03:17:52.827Z,6.20
2022-12-15T03:20:20.773Z,6.63
2022-12-15T03:22:48.685Z,6.93
2022-12-15T03:25:16.864Z,6.13
2022-12-15T03:27:47.379Z,7.03
2022-12-15T03:30:16.121Z,6.20
2022-12-15T03:32:44.098Z,6.70
2022-12-15T03:35:13.943Z,6.50
2022-12-15T03:37:42.832Z,6.00
2022-12-15T03:40:13.772Z,6.50
2022-12-15T03:42:51.024Z,6.03
2022-12-15T03:45:21.365Z,6.00
2022-12-15T03:47:50.021Z,5.50
2022-12-15T03:50:21.581Z,6.40
2022-12-15T03:52:53.127Z,5.67
2022-12-15T03:55:21.264Z,5.30
2022-12-15T03:57:49.575Z,6.67
2022-12-15T04:00:18.574Z,5.73
2022-12-15T04:02:47.394Z,6.43
2022-12-15T04:05:22.084Z,6.13
2022-12-15T04:07:50.444Z,5.77
2022-12-15T04:10:18.770Z,6.10
2022-12-15T04:12:46.742Z,6.70
2022-12-15T04:15:15.048Z,6.23
2022-12-15T04:17:43.678Z,6.60
2022-12-15T04:20:12.258Z,6.00
2022-12-15T04:22:43.707Z,7.07
2022-12-15T04:25:31.624Z,5.93
2022-12-15T04:28:17.648Z,6.03
2022-12-15T04:31:06.684Z,5.73
2022-12-15T04:33:53.040Z,7.10
2022-12-15T04:36:38.442Z,6.10
2022-12-15T04:39:25.201Z,6.67
2022-12-15T04:42:11.214Z,7.47
2022-12-15T04:44:57.245Z,6.60
2022-12-15T04:47:42.746Z,6.20
2022-12-15T04:50:28.184Z,6.40
2022-12-15T04:53:13.623Z,5.97
2022-12-15T04:56:00.606Z,6.40
2022-12-15T04:58:46.107Z,7.07
2022-12-15T05:01:31.735Z,7.03
2022-12-15T05:04:17.479Z,7.20
2022-12-15T05:07:02.888Z,6.87
2022-12-15T05:09:48.497Z,7.00
2022-12-15T05:12:35.449Z,6.80
2022-12-15T05:15:20.692Z,7.70
2022-12-15T05:18:06.418Z,7.07
2022-12-15T05:20:51.742Z,7.00
2022-12-15T05:23:37.310Z,7.27
2022-12-15T05:26:22.874Z,6.90
2022-12-15T05:29:09.521Z,7.07
2022-12-15T05:31:52.960Z,7.10
2022-12-15T05:34:22.478Z,7.03
2022-12-15T05:36:50.866Z,6.67
2022-12-15T05:39:18.809Z,7.00
2022-12-15T05:41:46.857Z,7.10
2022-12-15T05:44:17.352Z,7.13
2022-12-15T05:46:45.916Z,6.20
2022-12-15T05:49:15.944Z,6.77
2022-12-15T05:51:45.594Z,7.40
2022-12-15T05:54:16.756Z,7.50
2022-12-15T05:56:45.583Z,7.70
2022-12-15T05:59:14.957Z,6.83
2022-12-15T06:01:44.358Z,8.60
2022-12-15T06:04:13.510Z,7.67
2022-12-15T06:06:42.195Z,7.73
2022-12-15T06:09:10.938Z,7.83
2022-12-15T06:11:39.033Z,8.37
2022-12-15T06:14:07.159Z,8.00
2022-12-15T06:16:39.558Z,7.57
2022-12-15T06:19:12.024Z,8.03
2022-12-15T06:21:40.045Z,7.20
2022-12-15T06:24:09.057Z,7.10
2022-12-15T06:26:38.590Z,7.93
2022-12-15T06:29:08.473Z,8.33
2022-12-15T06:31:37.846Z,7.77
2022-12-15T06:34:07.167Z,7.60
2022-12-15T06:36:37.329Z,7.17
2022-12-15T06:39:08.081Z,7.80
2022-12-15T06:41:36.160Z,7.60
2022-12-15T06:44:05.511Z,8.00
2022-12-15T06:46:35.581Z,7.60
2022-12-15T06:49:03.685Z,8.77
2022-12-15T06:51:32.267Z,7.40
2022-12-15T06:54:01.688Z,7.90
2022-12-15T06:56:34.025Z,8.03
2022-12-15T06:59:03.351Z,8.53
2022-12-15T07:01:32.095Z,8.67
2022-12-15T07:04:02.635Z,8.37
2022-12-15T07:06:36.240Z,8.17
2022-12-15T07:09:10.379Z,7.93
2022-12-15T07:11:38.416Z,7.47
2022-12-15T07:14:06.413Z,8.83
2022-12-15T07:16:34.698Z,7.90
2022-12-15T07:19:02.752Z,7.70
2022-12-15T07:21:30.877Z,7.70
2022-12-15T07:23:59.730Z,8.70
2022-12-15T07:26:30.401Z,7.87
2022-12-15T07:28:58.399Z,8.43
2022-12-15T07:31:27.139Z,7.80
2022-12-15T07:33:55.189Z,8.30
2022-12-15T07:36:23.513Z,7.90
2022-12-15T07:38:52.205Z,8.20
2022-12-15T07:41:21.209Z,7.90
2022-12-15T07:43:50.680Z,8.60
2022-12-15T07:46:19.360Z,8.53
2022-12-15T07:48:50.288Z,7.70
2022-12-15T07:51:21.018Z,9.10
2022-12-15T07:53:50.550Z,8.50
2022-12-15T07:56:19.403Z,8.60
2022-12-15T07:58:47.417Z,8.77
2022-12-15T08:01:17.095Z,8.17
2022-12-15T08:03:45.758Z,8.20
2022-12-15T08:06:16.151Z,8.87
2022-12-15T08:08:50.304Z,8.43
2022-12-15T08:11:20.666Z,8.10
2022-12-15T08:14:06.982Z,9.83
2022-12-15T08:16:38.546Z,9.70
2022-12-15T08:19:08.086Z,9.00
2022-12-15T08:21:36.409Z,8.37
2022-12-15T08:24:04.705Z,9.30
2022-12-15T08:26:32.753Z,8.97
2022-12-15T08:29:40.529Z,7.60
2022-12-15T08:31:54.259Z,9.60
2022-12-15T08:34:22.581Z,8.77
2022-12-15T08:36:50.749Z,9.43
2022-12-15T08:39:18.814Z,8.17
2022-12-15T08:41:46.992Z,10.10
2022-12-15T08:44:16.754Z,8.60
2022-12-15T08:46:44.781Z,8.87
2022-12-15T08:49:19.575Z,10.20
2022-12-15T08:51:50.592Z,8.43
2022-12-15T08:54:19.131Z,9.47
2022-12-15T08:56:47.112Z,9.00
2022-12-15T08:59:15.772Z,9.10
2022-12-15T09:01:43.897Z,8.70
2022-12-15T09:04:13.407Z,8.20
2022-12-15T09:06:41.730Z,9.80
2022-12-15T09:09:12.604Z,10.00
2022-12-15T09:11:40.536Z,8.90
2022-12-15T09:14:08.827Z,8.90
2022-12-15T09:16:36.933Z,9.37
2022-12-15T09:19:05.160Z,9.50
2022-12-15T09:21:34.475Z,9.00
2022-12-15T09:24:03.424Z,9.57
2022-12-15T09:26:33.658Z,8.70
2022-12-15T09:29:02.793Z,9.37
2022-12-15T09:31:32.792Z,9.07
2022-12-15T09:34:01.894Z,8.60
2022-12-15T09:36:32.433Z,9.03
2022-12-15T09:39:03.493Z,9.63
2022-12-15T09:41:34.024Z,9.73
2022-12-15T09:44:04.930Z,9.60
2022-12-15T09:46:44.855Z,9.77
2022-12-15T09:49:26.424Z,9.60
2022-12-15T09:52:03.495Z,9.73
2022-12-15T09:54:36.681Z,10.30
2022-12-15T09:57:09.564Z,10.20
2022-12-15T09:59:42.686Z,9.23
2022-12-15T10:02:33.776Z,8.97
2022-12-15T10:05:12.552Z,9.43
2022-12-15T10:07:46.281Z,9.10
2022-12-15T10:10:21.815Z,8.93
2022-12-15T10:13:00.099Z,9.00
2022-12-15T10:15:35.275Z,9.40
2022-12-15T10:18:07.901Z,9.63
2022-12-15T10:20:35.857Z,10.03
2022-12-15T10:23:13.650Z,8.33
2022-12-15T10:28:58.738Z,9.27
2022-12-15T10:31:34.304Z,9.00
2022-12-15T10:34:10.389Z,9.73
2022-12-15T10:36:38.460Z,8.53
2022-12-15T10:39:06.383Z,9.57
2022-12-15T10:41:35.741Z,10.33
2022-12-15T10:44:03.838Z,9.30
2022-12-15T10:46:32.717Z,9.50
2022-12-15T10:49:22.052Z,10.30
2022-12-15T10:51:55.863Z,9.60
2022-12-15T10:54:24.870Z,10.23
2022-12-15T10:56:55.672Z,9.63
2022-12-15T10:59:26.380Z,9.80
2022-12-15T11:01:55.876Z,9.40
2022-12-15T11:04:28.337Z,9.50
2022-12-15T11:07:00.604Z,10.97
2022-12-15T11:09:34.457Z,9.40
2022-12-15T11:12:34.629Z,9.43
2022-12-15T11:15:02.778Z,9.60
2022-12-15T11:17:41.654Z,10.07
2022-12-15T11:20:21.917Z,9.80
2022-12-15T11:22:53.998Z,9.30
2022-12-15T11:25:32.691Z,10.70
2022-12-15T11:28:06.874Z,11.30
2022-12-15T11:30:39.287Z,9.37
2022-12-15T11:33:09.497Z,11.50
2022-12-15T11:35:57.140Z,10.77
2022-12-15T11:38:33.655Z,9.77
2022-12-15T11:41:10.101Z,10.03
2022-12-15T11:44:04.284Z,10.70
2022-12-15T11:46:42.140Z,9.67
2022-12-15T11:49:27.196Z,9.80
2022-12-15T11:52:03.562Z,10.03
2022-12-15T11:54:40.274Z,11.17
2022-12-15T11:57:24.679Z,10.10
2022-12-15T12:00:03.853Z,10.70
2022-12-15T12:02:47.488Z,10.20
2022-12-15T12:05:32.810Z,10.10
2022-12-15T12:08:13.214Z,10.07
2022-12-15T12:10:49.078Z,10.37
2022-12-15T12:13:23.540Z,9.97
2022-12-15T12:16:02.635Z,10.30
2022-12-15T12:18:35.545Z,10.30
2022-12-15T12:21:08.724Z,10.40
2022-12-15T12:23:43.268Z,9.80
2022-12-15T12:26:17.863Z,10.13
2022-12-15T12:28:50.900Z,8.87
2022-12-15T12:31:28.044Z,10.00
2022-12-15T12:34:02.566Z,10.63
2022-12-15T12:36:30.569Z,10.93
2022-12-15T12:38:59.827Z,10.60
2022-12-15T12:41:37.551Z,9.30
2022-12-15T12:44:15.596Z,10.07
2022-12-15T12:46:50.646Z,9.30
2022-12-15T12:49:26.861Z,11.17
2022-12-15T12:51:56.493Z,9.77
2022-12-15T12:54:42.546Z,10.10
2022-12-15T12:57:34.977Z,10.40
2022-12-15T13:00:14.107Z,9.27
2022-12-15T13:02:56.724Z,10.87
2022-12-15T13:05:31.114Z,9.90
2022-12-15T13:08:27.117Z,10.73
2022-12-15T13:10:56.270Z,10.40
2022-12-15T13:13:46.470Z,10.10
2022-12-15T13:16:24.561Z,9.70
2022-12-15T13:19:01.908Z,9.37
2022-12-15T13:21:53.925Z,11.03
2022-12-15T13:24:31.912Z,9.40
2022-12-15T13:27:15.639Z,10.17
2022-12-15T13:29:58.388Z,9.60
2022-12-15T13:32:34.763Z,10.13
2022-12-15T13:35:20.731Z,10.00
2022-12-15T13:37:51.568Z,9.07
2022-12-15T13:40:33.773Z,9.60
2022-12-15T13:43:10.421Z,8.73
2022-12-15T13:45:50.664Z,10.20
2022-12-15T13:48:39.323Z,10.00
2022-12-15T13:51:30.367Z,8.93
2022-12-15T13:54:02.816Z,10.10
2022-12-15T13:56:51.014Z,9.33
2022-12-15T13:59:30.479Z,10.60
2022-12-15T14:01:58.748Z,8.73
2022-12-15T14:04:27.316Z,9.47
2022-12-15T14:06:58.876Z,9.43
2022-12-15T14:09:31.093Z,9.40
2022-12-15T14:11:59.278Z,8.60
2022-12-15T14:14:30.071Z,9.80
2022-12-15T14:17:01.047Z,9.63
2022-12-15T14:19:39.015Z,9.37
2022-12-15T14:22:27.628Z,8.90
2022-12-15T14:25:02.519Z,9.73
2022-12-15T14:27:32.170Z,10.07
2022-12-15T14:30:23.860Z,10.83
2022-12-15T14:32:56.830Z,8.63
2022-12-15T14:35:30.453Z,9.97
2022-12-15T14:38:02.724Z,9.30
2022-12-15T14:40:30.973Z,9.70
2022-12-15T14:42:59.168Z,8.90
2022-12-15T14:45:29.464Z,8.70
2022-12-15T14:48:39.100Z,9.50
2022-12-15T14:50:49.330Z,10.10
2022-12-15T14:53:21.987Z,9.40
2022-12-15T14:55:50.320Z,9.90
2022-12-15T14:58:33.390Z,9.50
2022-12-15T15:01:02.858Z,8.63
2022-12-15T15:03:12.254Z,8.30
2022-12-15T15:03:37.284Z,8.10
2022-12-15T15:06:16.693Z,8.13
2022-12-15T15:08:48.301Z,8.83
2022-12-15T15:11:26.812Z,8.37
2022-12-15T15:13:56.735Z,9.03
2022-12-15T15:16:25.056Z,8.57
2022-12-15T15:18:56.339Z,7.97
2022-12-15T15:21:27.184Z,9.00
2022-12-15T15:24:04.512Z,8.13
2022-12-15T15:26:32.652Z,9.00
2022-12-15T15:29:00.654Z,8.67
2022-12-15T15:31:40.793Z,7.97
2022-12-15T15:34:09.669Z,7.73
2022-12-15T15:36:39.344Z,10.00
2022-12-15T15:39:16.083Z,8.23
2022-12-15T15:41:44.113Z,8.00
2022-12-15T15:44:14.676Z,9.10
2022-12-15T15:46:47.804Z,8.67
2022-12-15T15:49:18.737Z,7.37
2022-12-15T15:51:46.924Z,8.63
2022-12-15T15:54:18.841Z,8.03
2022-12-15T15:56:46.907Z,7.50
2022-12-15T15:59:16.734Z,8.27
2022-12-15T16:01:45.329Z,7.53
2022-12-15T16:04:13.524Z,8.10
2022-12-15T16:06:46.910Z,7.37
2022-12-15T16:09:17.866Z,7.23
2022-12-15T16:11:47.405Z,7.50
2022-12-15T16:14:16.845Z,8.33
2022-12-15T16:16:45.352Z,7.50
2022-12-15T16:19:13.468Z,7.50
2022-12-15T16:21:42.543Z,6.90
2022-12-15T16:24:15.558Z,7.70
2022-12-15T16:26:48.477Z,7.20
2022-12-15T16:29:18.738Z,8.10
2022-12-15T16:31:47.116Z,7.87
2022-12-15T16:34:17.506Z,6.90
2022-12-15T16:36:45.897Z,7.13
2022-12-15T16:39:26.031Z,7.13
2022-12-15T16:41:56.844Z,7.67
2022-12-15T16:44:25.850Z,7.53
2022-12-15T16:46:54.123Z,7.07
2022-12-15T16:49:22.614Z,7.60
2022-12-15T16:51:53.029Z,7.57
2022-12-15T16:54:23.744Z,7.30
2022-12-15T16:56:53.147Z,6.67
2022-12-15T16:59:33.518Z,7.30
2022-12-15T17:02:02.253Z,7.87
2022-12-15T17:04:30.449Z,6.93
2022-12-15T17:06:58.374Z,6.70
2022-12-15T17:09:27.159Z,8.23
2022-12-15T17:11:55.285Z,6.77
2022-12-15T17:14:24.705Z,8.00
2022-12-15T17:16:52.708Z,7.60
2022-12-15T17:19:21.453Z,7.30
2022-12-15T17:21:52.210Z,7.30
2022-12-15T17:24:22.179Z,7.60
2022-12-15T17:26:50.724Z,7.63
2022-12-15T17:29:21.120Z,7.47
2022-12-15T17:31:50.840Z,7.70
2022-12-15T17:34:30.046Z,7.10
2022-12-15T17:36:59.050Z,6.97
2022-12-15T17:39:27.716Z,6.90
2022-12-15T17:42:01.148Z,6.60
2022-12-15T17:44:35.085Z,7.07
2022-12-15T17:47:07.951Z,6.60
2022-12-15T17:49:38.351Z,7.40
2022-12-15T17:52:15.049Z,8.50
2022-12-15T17:54:42.972Z,7.63
2022-12-15T17:57:13.399Z,7.50
2022-12-15T17:59:41.363Z,7.40
2022-12-15T18:02:13.651Z,7.53
2022-12-15T18:04:42.123Z,7.50
2022-12-15T18:07:17.684Z,7.60
2022-12-15T18:09:45.796Z,6.82
2022-12-15T18:12:18.816Z,7.57
2022-12-15T18:14:58.567Z,7.13
2022-12-15T18:17:28.271Z,8.13
2022-12-15T18:19:56.436Z,8.23
2022-12-15T18:22:25.164Z,7.27
2022-12-15T18:24:54.867Z,8.00
2022-12-15T18:27:24.741Z,6.87
2022-12-15T18:29:52.853Z,7.67
2022-12-15T18:32:23.611Z,8.50
2022-12-15T18:34:53.651Z,7.60
2022-12-15T18:37:24.619Z,7.90
2022-12-15T18:39:52.726Z,7.00
2022-12-15T18:42:22.843Z,7.63
2022-12-15T18:45:00.264Z,7.73
2022-12-15T18:47:28.208Z,8.50
2022-12-15T18:49:57.551Z,7.57
2022-12-15T18:52:31.501Z,7.40
2022-12-15T18:55:02.644Z,7.90
2022-12-15T18:57:33.060Z,8.03
2022-12-15T19:00:05.266Z,7.33
2022-12-15T19:02:33.373Z,8.23
2022-12-15T19:05:02.862Z,8.23
2022-12-15T19:07:30.828Z,8.17
2022-12-15T19:09:58.872Z,9.53
2022-12-15T19:12:26.795Z,8.00
2022-12-15T19:14:55.110Z,8.87
2022-12-15T19:17:42.522Z,8.63
2022-12-15T19:20:36.212Z,8.57
2022-12-15T19:23:04.373Z,8.00
2022-12-15T19:25:32.840Z,7.90
2022-12-15T19:28:01.972Z,8.77
2022-12-15T19:30:35.919Z,8.50
2022-12-15T19:33:08.441Z,8.87
2022-12-15T19:35:38.409Z,8.90
2022-12-15T19:38:07.275Z,7.83
2022-12-15T19:40:38.333Z,8.70
2022-12-15T19:43:06.684Z,8.60
2022-12-15T19:45:34.877Z,8.90
2022-12-15T19:48:02.896Z,9.20
2022-12-15T19:50:36.070Z,8.67
2022-12-15T19:53:11.219Z,8.80
2022-12-15T19:55:40.132Z,8.13
2022-12-15T19:58:27.074Z,9.73
2022-12-15T20:00:56.768Z,9.57
2022-12-15T20:03:25.446Z,8.83
2022-12-15T20:05:55.596Z,8.43
2022-12-15T20:08:28.889Z,8.27
2022-12-15T20:10:57.725Z,8.83
2022-12-15T20:13:26.969Z,8.63
2022-12-15T20:15:55.500Z,9.40
2022-12-15T20:18:23.453Z,9.60
2022-12-15T20:20:51.879Z,7.87
2022-12-15T20:23:23.563Z,8.90
2022-12-15T20:25:53.466Z,9.43
2022-12-15T20:28:23.636Z,8.90
2022-12-15T20:30:51.952Z,8.80
2022-12-15T20:33:20.000Z,9.00
2022-12-15T20:35:50.341Z,8.70
2022-12-15T20:38:27.312Z,9.90
2022-12-15T20:40:57.267Z,9.07
2022-12-15T20:43:27.124Z,9.63
2022-12-15T20:46:03.074Z,9.60
2022-12-15T20:48:31.437Z,9.23
2022-12-15T20:51:01.913Z,9.43
2022-12-15T20:53:32.801Z,8.97
2022-12-15T20:56:02.413Z,9.10
2022-12-15T20:58:33.292Z,9.10
2022-12-15T21:01:02.136Z,9.00
2022-12-15T21:03:33.937Z,8.63
2022-12-15T21:06:02.131Z,9.00
2022-12-15T21:08:32.173Z,9.30
2022-12-15T21:11:11.623Z,10.20
2022-12-15T21:13:39.585Z,9.00
2022-12-15T21:16:08.002Z,9.03
2022-12-15T21:21:28.190Z,9.60
2022-12-15T21:23:58.014Z,9.37
2022-12-15T21:26:28.379Z,8.70
2022-12-15T21:28:57.931Z,9.43
2022-12-15T21:31:26.209Z,9.30
2022-12-15T21:33:54.931Z,9.53
2022-12-15T21:36:23.266Z,9.40
2022-12-15T21:38:52.841Z,9.70
2022-12-15T21:41:23.993Z,9.50
2022-12-15T21:43:53.278Z,9.40
2022-12-15T21:46:28.283Z,9.20
2022-12-15T21:49:13.990Z,9.30
2022-12-15T21:51:44.391Z,9.43
2022-12-15T21:54:18.113Z,8.50
2022-12-15T21:56:47.512Z,10.20
2022-12-15T21:59:18.787Z,10.63
2022-12-15T22:01:46.944Z,9.73
2022-12-15T22:04:19.198Z,9.63
2022-12-15T22:06:50.518Z,10.40
2022-12-15T22:09:19.625Z,9.13
2022-12-15T22:11:49.723Z,9.70
2022-12-15T22:14:25.775Z,9.90
2022-12-15T22:16:53.911Z,10.30
2022-12-15T22:19:22.958Z,9.83
2022-12-15T22:21:50.951Z,9.67
2022-12-15T22:24:20.756Z,9.23
2022-12-15T22:26:49.119Z,9.23
2022-12-15T22:29:21.380Z,8.67
2022-12-15T22:31:50.139Z,9.20
2022-12-15T22:34:22.796Z,8.77
2022-12-15T22:36:51.822Z,8.87
2022-12-15T22:39:20.599Z,9.77
2022-12-15T22:41:50.156Z,8.70
2022-12-15T22:44:22.518Z,9.20
2022-12-15T22:46:52.118Z,8.90
2022-12-15T22:49:24.143Z,9.70
2022-12-15T22:51:52.118Z,10.20
2022-12-15T22:54:21.194Z,10.33
2022-12-15T22:56:54.830Z,10.33
2022-12-15T22:59:29.376Z,9.40
2022-12-15T23:01:57.604Z,9.37
2022-12-15T23:04:26.043Z,8.93
2022-12-15T23:06:54.101Z,8.57
2022-12-15T23:09:22.954Z,9.20
2022-12-15T23:11:49.896Z,8.93
2022-12-15T23:14:39.656Z,8.97
2022-12-15T23:17:08.212Z,9.93
2022-12-15T23:19:36.286Z,9.57
2022-12-15T23:22:04.234Z,8.53
2022-12-15T23:24:32.409Z,9.50
2022-12-15T23:27:00.339Z,9.50
2022-12-15T23:29:28.266Z,9.50
2022-12-15T23:31:56.273Z,9.50
2022-12-15T23:34:25.524Z,10.10
2022-12-15T23:36:53.454Z,9.30
2022-12-15T23:39:21.362Z,8.70
2022-12-15T23:41:49.279Z,9.67
2022-12-15T23:44:17.379Z,8.93
2022-12-15T23:46:46.668Z,9.03
2022-12-15T23:49:14.759Z,8.60
2022-12-15T23:51:44.074Z,9.37
2022-12-15T23:54:12.102Z,10.00
2022-12-15T23:56:40.624Z,9.70
2022-12-15T23:59:08.603Z,8.70
